createdAt,value
2023-05-19T00:03:51.942Z,102218.13
2023-05-19T00:09:01.819Z,102222.97
2023-05-19T00:14:07.989Z,102232.25
2023-05-19T00:19:10.616Z,102221.84
2023-05-19T00:24:12.982Z,102209.84
2023-05-19T00:29:16.308Z,102220.00
2023-05-19T00:34:18.187Z,102214.38
2023-05-19T00:39:20.324Z,102214.00
2023-05-19T00:44:24.009Z,102218.69
2023-05-19T00:49:26.201Z,102219.19
2023-05-19T00:54:28.613Z,102218.09
2023-05-19T00:59:32.203Z,102216.09
2023-05-19T01:04:37.495Z,102211.22
2023-05-19T01:09:39.629Z,102218.66
2023-05-19T01:14:44.818Z,102207.94
2023-05-19T01:19:54.877Z,102210.41
2023-05-19T01:25:37.148Z,102215.44
2023-05-19T01:30:41.819Z,102218.66
2023-05-19T01:35:45.686Z,102215.63
2023-05-19T01:40:49.658Z,102221.66
2023-05-19T01:45:54.488Z,102214.63
2023-05-19T01:50:56.750Z,102214.97
2023-05-19T01:55:59.409Z,102210.63
2023-05-19T02:01:09.911Z,102218.66
2023-05-19T02:06:23.517Z,102224.81
2023-05-19T02:11:31.455Z,102226.44
2023-05-19T02:16:36.877Z,102223.88
2023-05-19T02:21:38.876Z,102219.88
2023-05-19T02:26:41.086Z,102214.69
2023-05-19T02:31:44.631Z,102215.25
2023-05-19T02:36:47.316Z,102212.31
2023-05-19T02:41:49.509Z,102201.69
2023-05-19T02:46:53.450Z,102204.19
2023-05-19T02:51:55.667Z,102209.34
2023-05-19T02:56:58.087Z,102212.78
2023-05-19T03:02:02.816Z,102204.63
2023-05-19T03:07:05.586Z,102210.72
2023-05-19T03:12:08.015Z,102213.41
2023-05-19T03:17:11.594Z,102197.06
2023-05-19T03:22:13.840Z,102207.81
2023-05-19T03:27:15.996Z,102204.72
2023-05-19T03:32:19.885Z,102191.84
2023-05-19T03:37:22.473Z,102186.22
2023-05-19T03:42:24.738Z,102186.28
2023-05-19T03:47:28.282Z,102199.09
2023-05-19T03:52:30.457Z,102203.72
2023-05-19T03:57:32.510Z,102195.38
2023-05-19T04:02:36.122Z,102199.31
2023-05-19T04:07:38.428Z,102196.59
2023-05-19T04:12:40.653Z,102198.22
2023-05-19T04:17:44.397Z,102201.47
2023-05-19T04:22:46.279Z,102204.28
2023-05-19T04:27:48.460Z,102209.19
2023-05-19T04:32:51.666Z,102200.16
2023-05-19T04:37:53.643Z,102197.69
2023-05-19T04:42:55.722Z,102212.28
2023-05-19T04:47:59.474Z,102203.88
2023-05-19T04:53:01.641Z,102206.50
2023-05-19T04:58:03.744Z,102216.81
2023-05-19T05:03:07.338Z,102203.56
2023-05-19T05:08:10.544Z,102220.41
2023-05-19T05:13:13.123Z,102222.00
2023-05-19T05:18:17.350Z,102220.16
2023-05-19T05:23:20.346Z,102220.31
2023-05-19T05:28:22.486Z,102228.53
2023-05-19T05:33:25.944Z,102219.63
2023-05-19T05:38:28.061Z,102211.59
2023-05-19T05:43:30.309Z,102211.09
2023-05-19T05:48:34.860Z,102217.75
2023-05-19T05:53:41.520Z,102216.56
2023-05-19T05:58:43.666Z,102228.28
2023-05-19T06:03:47.208Z,102221.44
2023-05-19T06:08:49.672Z,102220.00
2023-05-19T06:13:51.916Z,102217.31
2023-05-19T06:18:55.076Z,102217.53
2023-05-19T06:23:57.274Z,102218.06
2023-05-19T06:28:59.199Z,102216.97
2023-05-19T06:34:02.933Z,102216.13
2023-05-19T06:39:05.143Z,102208.38
2023-05-19T06:44:08.012Z,102216.88
2023-05-19T06:49:11.340Z,102215.31
2023-05-19T06:54:13.524Z,102217.88
2023-05-19T06:59:15.659Z,102226.59
2023-05-19T07:04:19.036Z,102217.78
2023-05-19T07:09:20.987Z,102226.72
2023-05-19T07:14:23.780Z,102216.13
2023-05-19T07:19:27.429Z,102213.84
2023-05-19T07:24:29.582Z,102222.56
2023-05-19T07:29:31.704Z,102222.94
2023-05-19T07:34:35.485Z,102209.91
2023-05-19T07:39:37.277Z,102212.41
2023-05-19T07:44:39.390Z,102211.78
2023-05-19T07:49:42.864Z,102207.16
2023-05-19T07:54:46.347Z,102194.13
2023-05-19T07:59:48.359Z,102206.00
2023-05-19T08:04:52.105Z,102200.72
2023-05-19T08:09:54.095Z,102202.72
2023-05-19T08:14:55.882Z,102195.97
2023-05-19T08:19:59.085Z,102198.91
2023-05-19T08:25:01.262Z,102209.09
2023-05-19T08:30:03.249Z,102200.84
2023-05-19T08:35:11.229Z,102201.78
2023-05-19T08:40:18.505Z,102192.69
2023-05-19T08:45:20.268Z,102196.53
2023-05-19T08:50:26.777Z,102204.09
2023-05-19T08:55:34.618Z,102189.66
2023-05-19T09:00:37.848Z,102186.16
2023-05-19T09:05:41.540Z,102164.94
2023-05-19T09:10:43.642Z,102170.50
2023-05-19T09:15:45.880Z,102161.44
2023-05-19T09:20:49.261Z,102161.63
2023-05-19T09:25:52.415Z,102148.97
2023-05-19T09:31:04.928Z,102147.81
2023-05-19T09:36:09.351Z,102133.44
2023-05-19T09:41:15.154Z,102139.88
2023-05-19T09:46:17.353Z,102141.78
2023-05-19T09:51:20.670Z,102131.44
2023-05-19T09:56:24.361Z,102123.72
2023-05-19T10:01:26.722Z,102118.50
2023-05-19T10:06:31.459Z,102121.28
2023-05-19T10:11:33.702Z,102114.91
2023-05-19T10:16:36.418Z,102115.50
2023-05-19T10:21:40.413Z,102112.78
2023-05-19T10:26:45.328Z,102123.44
2023-05-19T10:31:50.523Z,102121.88
2023-05-19T10:37:04.522Z,102109.56
2023-05-19T10:42:13.796Z,102110.88
2023-05-19T10:47:22.208Z,102099.41
2023-05-19T10:52:25.690Z,102098.56
2023-05-19T10:57:28.751Z,102090.53
2023-05-19T11:02:38.477Z,102097.47
2023-05-19T11:07:43.456Z,102083.44
2023-05-19T11:12:46.453Z,102083.91
2023-05-19T11:17:48.967Z,102089.44
2023-05-19T11:23:09.528Z,102082.66
2023-05-19T11:28:12.247Z,102082.03
2023-05-19T11:33:14.131Z,102057.63
2023-05-19T11:38:18.812Z,102070.47
2023-05-19T11:43:22.964Z,102063.50
2023-05-19T11:48:26.552Z,102060.31
2023-05-19T11:53:30.032Z,102068.19
2023-05-19T11:58:32.137Z,102074.56
2023-05-19T12:03:33.964Z,102058.72
2023-05-19T12:08:37.620Z,102081.28
2023-05-19T12:13:39.669Z,102076.31
2023-05-19T12:18:42.181Z,102059.38
2023-05-19T12:23:45.881Z,102059.25
2023-05-19T12:28:48.313Z,102056.47
2023-05-19T12:33:50.414Z,102049.22
2023-05-19T12:38:55.748Z,102044.91
2023-05-19T12:43:58.512Z,102046.53
2023-05-19T12:49:00.643Z,102043.72
2023-05-19T12:54:04.211Z,102044.66
2023-05-19T12:59:06.976Z,102038.81
2023-05-19T13:04:09.525Z,102028.59
2023-05-19T13:09:13.608Z,102029.28
2023-05-19T13:14:18.325Z,102038.69
2023-05-19T13:24:27.122Z,102023.97
2023-05-19T13:29:29.583Z,102025.25
2023-05-19T13:34:31.868Z,102012.56
2023-05-19T13:39:35.568Z,102019.44
2023-05-19T13:44:37.750Z,102015.50
2023-05-19T13:49:39.720Z,102024.81
2023-05-19T13:54:42.908Z,102019.69
2023-05-19T13:59:57.633Z,102026.53
2023-05-19T14:05:03.666Z,102017.94
2023-05-19T14:10:08.062Z,102011.06
2023-05-19T14:15:11.622Z,102008.84
2023-05-19T14:20:13.803Z,102011.63
2023-05-19T14:25:17.454Z,102029.16
2023-05-19T14:30:19.675Z,102018.44
2023-05-19T14:35:21.481Z,102026.75
2023-05-19T14:40:25.137Z,102022.44
2023-05-19T14:45:27.298Z,102012.28
2023-05-19T14:50:29.428Z,102015.31
2023-05-19T14:55:32.653Z,102016.47
2023-05-19T15:00:35.381Z,102016.09
2023-05-19T15:05:37.435Z,102023.78
2023-05-19T15:10:40.835Z,102012.44
2023-05-19T15:15:42.805Z,102015.88
2023-05-19T15:20:44.568Z,102026.50
2023-05-19T15:25:47.834Z,102018.03
2023-05-19T15:30:50.501Z,102010.63
2023-05-19T15:35:52.710Z,102002.38
2023-05-19T15:40:56.251Z,102006.66
2023-05-19T15:45:57.969Z,102004.28
2023-05-19T15:50:59.904Z,102006.22
2023-05-19T15:56:04.830Z,102018.25
2023-05-19T16:01:07.192Z,102004.97
2023-05-19T16:06:09.202Z,102003.34
2023-05-19T16:11:13.180Z,102009.91
2023-05-19T16:16:15.666Z,102001.16
2023-05-19T16:21:17.946Z,102003.63
2023-05-19T16:26:21.870Z,101996.38
2023-05-19T16:31:23.937Z,102002.25
2023-05-19T16:36:26.218Z,101993.06
2023-05-19T16:41:29.727Z,101992.31
2023-05-19T16:46:31.765Z,101998.63
2023-05-19T16:51:33.626Z,102003.16
2023-05-19T16:56:36.807Z,101996.38
2023-05-19T17:01:39.019Z,101999.84
2023-05-19T17:06:40.868Z,102005.31
2023-05-19T17:11:43.963Z,102002.66
2023-05-19T17:16:47.248Z,102007.59
2023-05-19T17:21:49.800Z,102006.59
2023-05-19T17:26:53.260Z,102013.69
2023-05-19T17:31:55.947Z,102013.38
2023-05-19T17:36:57.848Z,102015.00
2023-05-19T17:42:01.577Z,102016.88
2023-05-19T17:47:03.436Z,102015.22
2023-05-19T17:52:06.660Z,102017.53
2023-05-19T17:57:11.641Z,102011.31
2023-05-19T18:02:13.933Z,102015.84
2023-05-19T18:07:18.258Z,102014.50
2023-05-19T18:12:21.524Z,102021.84
2023-05-19T18:17:23.592Z,102022.72
2023-05-19T18:22:25.905Z,102027.75
2023-05-19T18:27:29.380Z,102017.94
2023-05-19T18:32:31.531Z,102017.13
2023-05-19T18:37:33.934Z,102027.44
2023-05-19T18:42:37.507Z,102018.63
2023-05-19T18:47:39.708Z,102020.94
2023-05-19T18:52:42.525Z,102032.75
2023-05-19T18:57:45.816Z,102032.22
2023-05-19T19:02:47.585Z,102038.63
2023-05-19T19:07:49.890Z,102042.38
2023-05-19T19:12:53.057Z,102042.56
2023-05-19T19:17:55.149Z,102048.91
2023-05-19T19:22:56.908Z,102049.78
2023-05-19T19:28:00.233Z,102037.47
2023-05-19T19:33:04.565Z,102048.25
2023-05-19T19:38:07.101Z,102044.81
2023-05-19T19:43:10.218Z,102050.22
2023-05-19T19:48:12.221Z,102051.25
2023-05-19T19:53:14.007Z,102051.31
2023-05-19T19:58:17.129Z,102054.06
2023-05-19T20:03:18.943Z,102049.66
2023-05-19T20:08:20.959Z,102060.44
2023-05-19T20:13:24.206Z,102066.69
2023-05-19T20:18:26.178Z,102076.50
2023-05-19T20:23:28.178Z,102078.34
2023-05-19T20:28:31.682Z,102079.28
2023-05-19T20:33:33.899Z,102078.44
2023-05-19T20:38:36.071Z,102081.16
2023-05-19T20:43:39.218Z,102088.34
2023-05-19T20:48:41.232Z,102093.66
2023-05-19T20:53:43.478Z,102089.16
2023-05-19T20:58:46.614Z,102088.34
2023-05-19T21:03:48.725Z,102079.41
2023-05-19T21:08:50.502Z,102082.09
2023-05-19T21:13:54.086Z,102093.69
2023-05-19T21:18:56.506Z,102091.88
2023-05-19T21:23:58.348Z,102091.88
2023-05-19T21:29:01.815Z,102097.22
2023-05-19T21:34:04.322Z,102098.09
2023-05-19T21:39:06.087Z,102102.53
2023-05-19T21:44:09.293Z,102109.66
2023-05-19T21:49:11.056Z,102106.97
2023-05-19T21:54:13.029Z,102112.25
2023-05-19T21:59:16.583Z,102120.19
2023-05-19T22:04:19.124Z,102116.66
2023-05-19T22:09:21.662Z,102110.41
2023-05-19T22:14:25.195Z,102113.94
2023-05-19T22:19:27.737Z,102120.97
2023-05-19T22:24:29.507Z,102128.91
2023-05-19T22:29:33.289Z,102127.06
2023-05-19T22:34:35.195Z,102130.50
2023-05-19T22:39:39.800Z,102124.34
2023-05-19T22:44:43.273Z,102117.16
2023-05-19T22:49:45.131Z,102107.31
2023-05-19T22:54:47.341Z,102120.56
2023-05-19T22:59:50.792Z,102117.91
2023-05-19T23:04:53.039Z,102115.25
2023-05-19T23:09:55.652Z,102108.19
2023-05-19T23:14:58.831Z,102108.19
2023-05-19T23:20:02.029Z,102109.03
2023-05-19T23:25:04.288Z,102109.03
2023-05-19T23:30:09.438Z,102110.78
2023-05-19T23:35:12.903Z,102114.19
2023-05-19T23:40:15.723Z,102111.63
2023-05-19T23:45:19.580Z,102116.06
2023-05-19T23:50:21.763Z,102114.28
2023-05-19T23:55:23.510Z,102106.28
